createdAt,value
2023-04-11T00:00:07.077Z,955.7000
2023-04-11T00:00:18.284Z,955.7000
2023-04-11T00:00:29.311Z,955.7000
2023-04-11T00:00:40.352Z,955.7000
2023-04-11T00:00:51.561Z,955.7000
2023-04-11T00:01:02.771Z,955.7000
2023-04-11T00:01:13.964Z,955.7200
2023-04-11T00:01:25.156Z,955.7200
2023-04-11T00:01:36.323Z,955.7200
2023-04-11T00:01:47.584Z,955.7400
2023-04-11T00:01:58.814Z,955.7400
2023-04-11T00:02:10.001Z,955.7600
2023-04-11T00:03:19.317Z,955.7600
2023-04-11T00:03:19.317Z,955.7400
2023-04-11T00:03:30.941Z,955.8200
2023-04-11T00:03:42.345Z,955.8200
2023-04-11T00:03:53.788Z,955.8600
2023-04-11T00:04:05.027Z,955.8400
2023-04-11T00:04:16.259Z,955.8600
2023-04-11T00:04:27.452Z,955.8600
2023-04-11T00:04:38.893Z,955.8400
2023-04-11T00:04:50.377Z,955.8600
2023-04-11T00:05:01.554Z,955.8600
2023-04-11T00:05:12.692Z,955.8600
2023-04-11T00:05:23.877Z,955.8600
2023-04-11T00:05:35.071Z,955.8800
2023-04-11T00:05:46.285Z,955.8800
2023-04-11T00:05:57.305Z,955.8800
2023-04-11T00:06:08.407Z,955.8800
2023-04-11T00:06:19.564Z,955.8800
2023-04-11T00:06:30.751Z,955.9000
2023-04-11T00:06:41.958Z,955.8800
2023-04-11T00:06:53.171Z,955.9000
2023-04-11T00:07:04.358Z,955.9000
2023-04-11T00:07:15.556Z,955.8800
2023-04-11T00:07:26.756Z,955.8800
2023-04-11T00:07:37.796Z,955.8800
2023-04-11T00:07:48.829Z,955.8800
2023-04-11T00:08:00.132Z,955.8800
2023-04-11T00:08:11.236Z,955.8600
2023-04-11T00:08:22.458Z,955.8600
2023-04-11T00:08:33.473Z,955.8800
2023-04-11T00:08:44.511Z,955.8600
2023-04-11T00:08:55.926Z,955.8600
2023-04-11T00:09:07.259Z,955.8600
2023-04-11T00:09:18.429Z,955.8800
2023-04-11T00:09:29.640Z,955.8800
2023-04-11T00:09:40.887Z,955.8600
2023-04-11T00:09:52.054Z,955.8600
2023-04-11T00:10:03.127Z,955.8600
2023-04-11T00:10:14.177Z,955.8400
2023-04-11T00:10:25.339Z,955.8400
2023-04-11T00:10:36.348Z,955.8400
2023-04-11T00:10:47.397Z,955.8600
2023-04-11T00:10:58.603Z,955.9000
2023-04-11T00:11:09.636Z,955.8800
2023-04-11T00:11:20.679Z,955.8600
2023-04-11T00:11:31.883Z,955.8600
2023-04-11T00:11:42.964Z,955.8400
2023-04-11T00:11:54.006Z,955.8600
2023-04-11T00:12:05.161Z,955.8600
2023-04-11T00:12:16.189Z,955.8600
2023-04-11T00:12:27.245Z,955.8600
2023-04-11T00:12:38.450Z,955.8400
2023-04-11T00:12:49.636Z,955.8400
2023-04-11T00:13:00.793Z,955.8400
2023-04-11T00:13:11.852Z,955.8400
2023-04-11T00:13:22.920Z,955.8400
2023-04-11T00:13:34.116Z,955.8600
2023-04-11T00:13:45.153Z,955.8600
2023-04-11T00:13:56.163Z,955.8400
2023-04-11T00:14:07.235Z,955.8400
2023-04-11T00:14:18.279Z,955.8600
2023-04-11T00:14:29.332Z,955.8600
2023-04-11T00:14:40.373Z,955.8600
2023-04-11T00:14:51.556Z,955.8800
2023-04-11T00:15:02.781Z,955.8400
2023-04-11T00:15:13.970Z,955.8600
2023-04-11T00:15:25.149Z,955.8600
2023-04-11T00:15:36.174Z,955.8600
2023-04-11T00:15:47.232Z,955.8400
2023-04-11T00:15:58.478Z,955.8400
2023-04-11T00:16:09.694Z,955.8400
2023-04-11T00:16:20.809Z,955.8400
2023-04-11T00:16:32.093Z,955.8400
2023-04-11T00:16:43.268Z,955.8400
2023-04-11T00:16:54.474Z,955.8400
2023-04-11T00:17:05.627Z,955.8400
2023-04-11T00:17:16.845Z,955.8600
2023-04-11T00:17:28.073Z,955.8600
2023-04-11T00:17:39.129Z,955.8600
2023-04-11T00:17:50.218Z,955.8600
2023-04-11T00:18:01.416Z,955.8600
2023-04-11T00:18:12.486Z,955.8400
2023-04-11T00:18:23.535Z,955.8600
2023-04-11T00:18:34.611Z,955.8600
2023-04-11T00:18:45.619Z,955.8400
2023-04-11T00:18:56.815Z,955.8400
2023-04-11T00:19:07.939Z,955.8400
2023-04-11T00:19:18.992Z,955.8400
2023-04-11T00:19:30.056Z,955.8400
2023-04-11T00:19:41.173Z,955.8400
2023-04-11T00:19:52.207Z,955.8400
2023-04-11T00:20:03.230Z,955.8400
2023-04-11T00:20:14.435Z,955.8400
2023-04-11T00:20:25.658Z,955.8400
2023-04-11T00:20:36.690Z,955.8600
2023-04-11T00:20:47.709Z,955.8400
2023-04-11T00:20:58.756Z,955.8200
2023-04-11T00:21:09.804Z,955.8400
2023-04-11T00:21:21.035Z,955.8400
2023-04-11T00:21:32.057Z,955.8600
2023-04-11T00:21:43.094Z,955.8600
2023-04-11T00:21:54.275Z,955.8600
2023-04-11T00:22:05.319Z,955.8400
2023-04-11T00:22:16.379Z,955.8600
2023-04-11T00:22:27.594Z,955.8600
2023-04-11T00:22:38.599Z,955.8600
2023-04-11T00:22:49.671Z,955.8400
2023-04-11T00:23:00.859Z,955.8400
2023-04-11T00:23:11.918Z,955.8400
2023-04-11T00:23:22.981Z,955.8400
2023-04-11T00:23:34.030Z,955.8400
2023-04-11T00:23:45.237Z,955.8400
2023-04-11T00:23:56.293Z,955.8400
2023-04-11T00:24:07.402Z,955.8600
2023-04-11T00:24:18.428Z,955.8400
2023-04-11T00:24:29.476Z,955.8400
2023-04-11T00:24:40.699Z,955.8400
2023-04-11T00:24:51.726Z,955.8200
2023-04-11T00:25:02.770Z,955.8200
2023-04-11T00:25:13.977Z,955.8200
2023-04-11T00:25:25.011Z,955.8000
2023-04-11T00:25:36.036Z,955.8200
2023-04-11T00:25:47.247Z,955.8000
2023-04-11T00:25:58.452Z,955.8000
2023-04-11T00:26:09.647Z,955.8000
2023-04-11T00:26:20.864Z,955.8000
2023-04-11T00:26:31.891Z,955.8000
2023-04-11T00:26:42.927Z,955.8000
2023-04-11T00:26:54.150Z,955.8000
2023-04-11T00:27:05.195Z,955.8000
2023-04-11T00:27:16.248Z,955.8000
2023-04-11T00:27:27.397Z,955.8000
2023-04-11T00:27:38.468Z,955.8000
2023-04-11T00:27:49.478Z,955.7800
2023-04-11T00:28:00.677Z,955.8000
2023-04-11T00:28:11.921Z,955.8000
2023-04-11T00:28:23.076Z,955.8000
2023-04-11T00:28:34.275Z,955.8000
2023-04-11T00:28:45.487Z,955.8000
2023-04-11T00:28:56.904Z,955.8000
2023-04-11T00:29:08.239Z,955.8000
2023-04-11T00:29:19.400Z,955.8000
2023-04-11T00:29:30.594Z,955.8000
2023-04-11T00:29:41.805Z,955.8000
2023-04-11T00:29:53.007Z,955.8000
2023-04-11T00:30:04.204Z,955.8200
2023-04-11T00:30:15.408Z,955.8400
2023-04-11T00:30:26.600Z,955.8600
2023-04-11T00:30:37.637Z,955.8800
2023-04-11T00:30:48.687Z,955.8800
2023-04-11T00:30:59.868Z,955.8800
2023-04-11T00:31:11.083Z,955.8800
2023-04-11T00:31:22.291Z,955.8800
2023-04-11T00:31:33.561Z,955.9000
2023-04-11T00:31:44.736Z,955.9000
2023-04-11T00:31:55.924Z,955.9000
2023-04-11T00:32:07.230Z,955.9000
2023-04-11T00:32:18.307Z,955.9000
2023-04-11T00:32:29.514Z,955.9000
2023-04-11T00:32:40.740Z,955.9200
2023-04-11T00:32:51.816Z,955.9200
2023-04-11T00:33:02.871Z,955.9000
2023-04-11T00:33:13.988Z,955.9000
2023-04-11T00:33:25.162Z,955.9000
2023-04-11T00:33:36.916Z,955.9000
2023-04-11T00:33:49.213Z,955.9000
2023-04-11T00:34:00.237Z,955.8800
2023-04-11T00:34:11.305Z,955.8800
2023-04-11T00:34:22.454Z,955.8800
2023-04-11T00:34:33.643Z,955.8800
2023-04-11T00:34:44.827Z,955.8600
2023-04-11T00:34:56.044Z,955.8600
2023-04-11T00:35:07.242Z,955.8400
2023-04-11T00:35:18.451Z,955.8400
2023-04-11T00:35:29.645Z,955.8400
2023-04-11T00:35:40.769Z,955.8400
2023-04-11T00:35:51.848Z,955.8400
2023-04-11T00:36:03.101Z,955.8400
2023-04-11T00:36:14.249Z,955.8400
2023-04-11T00:36:25.384Z,955.8200
2023-04-11T00:36:36.602Z,955.8400
2023-04-11T00:36:47.820Z,955.8200
2023-04-11T00:36:58.960Z,955.8200
2023-04-11T00:37:10.123Z,955.8200
2023-04-11T00:37:21.316Z,955.8200
2023-04-11T00:37:32.523Z,955.8200
2023-04-11T00:37:43.558Z,955.8400
2023-04-11T00:37:54.603Z,955.8400
2023-04-11T00:38:05.819Z,955.8400
2023-04-11T00:38:16.882Z,955.8400
2023-04-11T00:38:27.934Z,955.8400
2023-04-11T00:38:39.091Z,955.8400
2023-04-11T00:38:50.149Z,955.8400
2023-04-11T00:39:01.252Z,955.8400
2023-04-11T00:39:12.397Z,955.8400
2023-04-11T00:39:23.553Z,955.8600
2023-04-11T00:39:34.761Z,955.8400
2023-04-11T00:39:45.958Z,955.8400
2023-04-11T00:39:57.146Z,955.8400
2023-04-11T00:40:08.186Z,955.8400
2023-04-11T00:40:19.236Z,955.8200
2023-04-11T00:40:30.453Z,955.8200
2023-04-11T00:40:41.493Z,955.8200
2023-04-11T00:40:52.593Z,955.8200
2023-04-11T00:41:03.643Z,955.8200
2023-04-11T00:41:14.701Z,955.8200
2023-04-11T00:41:25.793Z,955.8200
2023-04-11T00:41:36.995Z,955.8200
2023-04-11T00:41:48.203Z,955.8000
2023-04-11T00:41:59.393Z,955.8000
2023-04-11T00:42:10.608Z,955.8000
2023-04-11T00:42:21.828Z,955.7800
2023-04-11T00:42:32.986Z,955.7800
2023-04-11T00:42:44.192Z,955.7600
2023-04-11T00:42:55.408Z,955.7400
2023-04-11T00:43:06.584Z,955.7200
2023-04-11T00:43:17.836Z,955.7200
2023-04-11T00:43:29.000Z,955.7200
2023-04-11T00:43:40.201Z,955.7200
2023-04-11T00:43:51.393Z,955.7000
2023-04-11T00:44:02.619Z,955.6800
2023-04-11T00:44:13.725Z,955.6800
2023-04-11T00:44:24.780Z,955.6800
2023-04-11T00:44:35.921Z,955.6800
2023-04-11T00:44:47.072Z,955.6800
2023-04-11T00:44:58.300Z,955.6800
2023-04-11T00:45:09.500Z,955.6800
2023-04-11T00:45:20.609Z,955.6800
2023-04-11T00:45:31.699Z,955.6800
2023-04-11T00:45:42.865Z,955.6800
2023-04-11T00:45:54.060Z,955.6800
2023-04-11T00:46:05.210Z,955.6800
2023-04-11T00:46:16.438Z,955.7000
2023-04-11T00:46:27.630Z,955.7000
2023-04-11T00:46:39.137Z,955.7000
2023-04-11T00:46:50.268Z,955.7200
2023-04-11T00:47:01.513Z,955.7200
2023-04-11T00:47:12.563Z,955.7200
2023-04-11T00:47:23.706Z,955.7200
2023-04-11T00:47:34.780Z,955.7200
2023-04-11T00:47:45.904Z,955.7000
2023-04-11T00:47:57.009Z,955.7000
2023-04-11T00:48:08.139Z,955.6800
2023-04-11T00:48:19.281Z,955.6800
2023-04-11T00:48:30.347Z,955.6800
2023-04-11T00:48:41.431Z,955.6600
2023-04-11T00:48:52.530Z,955.6400
2023-04-11T00:49:03.717Z,955.6600
2023-04-11T00:49:14.935Z,955.6400
2023-04-11T00:49:26.105Z,955.6200
2023-04-11T00:49:37.140Z,955.6200
2023-04-11T00:49:48.205Z,955.6200
2023-04-11T00:49:59.392Z,955.6000
2023-04-11T00:50:10.602Z,955.6000
2023-04-11T00:50:21.794Z,955.5800
2023-04-11T00:50:32.996Z,955.5800
2023-04-11T00:50:44.036Z,955.5600
2023-04-11T00:50:55.083Z,955.5800
2023-04-11T00:51:06.282Z,955.5600
2023-04-11T00:51:17.481Z,955.5600
2023-04-11T00:51:28.684Z,955.5800
2023-04-11T00:51:39.882Z,955.5800
2023-04-11T00:51:50.942Z,955.5800
2023-04-11T00:52:02.000Z,955.5800
2023-04-11T00:52:13.161Z,955.5600
2023-04-11T00:52:24.203Z,955.5800
2023-04-11T00:52:35.275Z,955.5600
2023-04-11T00:52:46.460Z,955.5800
2023-04-11T00:52:57.472Z,955.5800
2023-04-11T00:53:08.515Z,955.5800
2023-04-11T00:53:19.721Z,955.5600
2023-04-11T00:53:30.941Z,955.5600
2023-04-11T00:53:42.133Z,955.5600
2023-04-11T00:53:53.207Z,955.5600
2023-04-11T00:54:04.228Z,955.5400
2023-04-11T00:54:15.440Z,955.5400
2023-04-11T00:54:26.477Z,955.5400
2023-04-11T00:54:37.508Z,955.5400
2023-04-11T00:54:48.719Z,955.5400
2023-04-11T00:54:59.866Z,955.5400
2023-04-11T00:55:10.900Z,955.5400
2023-04-11T00:55:21.952Z,955.5400
2023-04-11T00:55:33.153Z,955.5600
2023-04-11T00:55:44.364Z,955.5400
2023-04-11T00:55:55.567Z,955.5200
2023-04-11T00:56:06.634Z,955.5400
2023-04-11T00:56:17.698Z,955.5200
2023-04-11T00:56:28.827Z,955.5400
2023-04-11T00:56:40.049Z,955.5400
2023-04-11T00:56:51.226Z,955.5400
2023-04-11T00:57:02.287Z,955.5400
2023-04-11T00:57:13.344Z,955.5400
2023-04-11T00:57:24.512Z,955.5400
2023-04-11T00:57:35.722Z,955.5400
2023-04-11T00:57:46.912Z,955.5400
2023-04-11T00:57:57.981Z,955.5400
2023-04-11T00:58:09.088Z,955.5400
2023-04-11T00:58:20.214Z,955.5200
2023-04-11T00:58:31.434Z,955.5200
2023-04-11T00:58:42.590Z,955.5000
2023-04-11T00:58:53.920Z,955.5000
2023-04-11T00:59:05.371Z,955.4800
2023-04-11T00:59:16.508Z,955.4400
2023-04-11T00:59:27.712Z,955.4400
2023-04-11T00:59:38.754Z,955.4000
2023-04-11T00:59:49.815Z,955.3800
2023-04-11T01:00:00.856Z,955.3700
2023-04-11T01:00:11.939Z,955.3500
2023-04-11T01:00:23.071Z,955.3300
2023-04-11T01:00:34.273Z,955.3300
2023-04-11T01:00:45.515Z,955.3100
2023-04-11T01:00:56.604Z,955.3100
2023-04-11T01:01:07.696Z,955.2900
2023-04-11T01:01:18.770Z,955.2700
2023-04-11T01:01:29.899Z,955.2700
2023-04-11T01:01:41.217Z,955.2500
2023-04-11T01:01:52.452Z,955.2500
2023-04-11T01:02:03.706Z,955.2700
2023-04-11T01:02:14.890Z,955.2700
2023-04-11T01:02:26.111Z,955.2700
2023-04-11T01:02:37.334Z,955.2900
2023-04-11T01:02:48.478Z,955.2900
2023-04-11T01:02:59.752Z,955.3100
2023-04-11T01:03:11.189Z,955.3100
2023-04-11T01:03:22.534Z,955.3300
2023-04-11T01:03:34.354Z,955.3500
2023-04-11T01:03:45.775Z,955.3700
2023-04-11T01:03:57.117Z,955.3800
2023-04-11T01:04:08.672Z,955.3800
2023-04-11T01:04:19.961Z,955.4000
2023-04-11T01:04:31.094Z,955.4200
2023-04-11T01:04:42.314Z,955.4600
2023-04-11T01:04:53.382Z,955.4800
2023-04-11T01:05:04.445Z,955.5000
2023-04-11T01:05:15.506Z,955.5000
2023-04-11T01:05:26.553Z,955.4800
2023-04-11T01:05:37.614Z,955.4800
2023-04-11T01:05:48.632Z,955.4800
2023-04-11T01:05:59.735Z,955.4400
2023-04-11T01:06:10.922Z,955.4200
2023-04-11T01:06:21.955Z,955.4200
2023-04-11T01:06:33.025Z,955.3800
2023-04-11T01:06:44.208Z,955.3800
2023-04-11T01:06:55.397Z,955.3800
2023-04-11T01:07:06.612Z,955.3700
2023-04-11T01:07:17.643Z,955.3500
2023-04-11T01:07:28.681Z,955.3100
2023-04-11T01:07:39.885Z,955.3100
2023-04-11T01:07:51.075Z,955.2700
2023-04-11T01:08:02.274Z,955.2700
2023-04-11T01:08:13.485Z,955.2700
2023-04-11T01:08:24.679Z,955.2500
2023-04-11T01:08:35.912Z,955.2300
2023-04-11T01:08:47.077Z,955.2300
2023-04-11T01:08:58.401Z,955.2300
2023-04-11T01:09:09.561Z,955.2300
2023-04-11T01:09:20.675Z,955.2300
2023-04-11T01:09:31.878Z,955.2500
2023-04-11T01:09:42.925Z,955.2300
2023-04-11T01:09:54.004Z,955.2300
2023-04-11T01:10:05.165Z,955.2300
2023-04-11T01:10:16.213Z,955.2300
2023-04-11T01:10:27.248Z,955.2300
2023-04-11T01:10:38.476Z,955.2500
2023-04-11T01:10:49.648Z,955.2500
2023-04-11T01:11:00.851Z,955.2700
2023-04-11T01:11:12.048Z,955.2900
2023-04-11T01:11:23.231Z,955.3100
2023-04-11T01:11:34.279Z,955.3100
2023-04-11T01:11:45.320Z,955.3300
2023-04-11T01:11:56.522Z,955.3500
2023-04-11T01:12:07.550Z,955.3500
2023-04-11T01:12:18.607Z,955.3500
2023-04-11T01:12:29.800Z,955.3500
2023-04-11T01:12:40.845Z,955.3300
2023-04-11T01:12:51.894Z,955.3300
2023-04-11T01:13:02.962Z,955.3300
2023-04-11T01:13:14.279Z,955.3500
2023-04-11T01:13:25.471Z,955.3500
2023-04-11T01:13:36.571Z,955.3500
2023-04-11T01:13:47.660Z,955.3300
2023-04-11T01:13:58.773Z,955.3500
2023-04-11T01:14:09.960Z,955.3300
2023-04-11T01:14:21.166Z,955.3500
2023-04-11T01:14:32.383Z,955.3300
2023-04-11T01:14:43.557Z,955.3300
2023-04-11T01:14:54.768Z,955.3300
2023-04-11T01:15:05.968Z,955.3300
2023-04-11T01:15:17.194Z,955.3100
2023-04-11T01:15:28.281Z,955.3100
2023-04-11T01:15:39.328Z,955.3300
2023-04-11T01:15:50.369Z,955.3300
2023-04-11T01:16:01.432Z,955.3300
2023-04-11T01:16:12.592Z,955.3500
2023-04-11T01:16:23.644Z,955.3700
2023-04-11T01:16:34.763Z,955.3700
2023-04-11T01:16:45.819Z,955.3800
2023-04-11T01:16:56.946Z,955.3800
2023-04-11T01:17:08.324Z,955.4000
2023-04-11T01:17:19.457Z,955.4200
2023-04-11T01:17:30.647Z,955.4000
2023-04-11T01:17:41.827Z,955.4000
2023-04-11T01:17:53.085Z,955.4000
2023-04-11T01:18:04.323Z,955.4000
2023-04-11T01:18:15.506Z,955.3800
2023-04-11T01:18:26.548Z,955.3800
2023-04-11T01:18:37.665Z,955.3700
2023-04-11T01:18:48.716Z,955.3300
2023-04-11T01:18:59.748Z,955.3100
2023-04-11T01:19:10.806Z,955.3100
2023-04-11T01:19:21.968Z,955.2900
2023-04-11T01:19:33.152Z,955.2700
2023-04-11T01:19:44.376Z,955.2700
2023-04-11T01:19:55.558Z,955.2500
2023-04-11T01:20:06.619Z,955.2500
2023-04-11T01:20:17.684Z,955.2700
2023-04-11T01:20:28.841Z,955.2500
2023-04-11T01:20:40.042Z,955.2300
2023-04-11T01:20:51.239Z,955.2300
2023-04-11T01:21:02.451Z,955.2100
2023-04-11T01:21:13.517Z,955.2100
2023-04-11T01:21:24.578Z,955.1900
2023-04-11T01:21:35.727Z,955.1900
2023-04-11T01:21:46.926Z,955.1700
2023-04-11T01:21:58.129Z,955.1700
2023-04-11T01:22:09.332Z,955.1500
2023-04-11T01:22:20.527Z,955.1500
2023-04-11T01:22:31.727Z,955.1500
2023-04-11T01:22:42.779Z,955.1500
2023-04-11T01:22:53.837Z,955.1500
2023-04-11T01:23:05.001Z,955.1500
2023-04-11T01:23:16.062Z,955.1300
2023-04-11T01:23:27.098Z,955.1300
2023-04-11T01:23:38.191Z,955.1300
2023-04-11T01:23:49.292Z,955.1300
2023-04-11T01:24:00.367Z,955.0900
2023-04-11T01:24:11.566Z,955.0900
2023-04-11T01:24:22.613Z,955.0700
2023-04-11T01:24:33.648Z,955.0500
2023-04-11T01:24:44.838Z,955.0500
2023-04-11T01:24:56.042Z,955.0500
2023-04-11T01:25:07.081Z,955.0300
2023-04-11T01:25:18.119Z,955.0300
2023-04-11T01:25:29.177Z,955.0100
2023-04-11T01:25:40.234Z,955.0100
2023-04-11T01:25:51.406Z,955.0100
2023-04-11T01:26:02.644Z,955.0100
2023-04-11T01:26:13.792Z,955.0300
2023-04-11T01:26:25.000Z,955.0100
2023-04-11T01:26:36.060Z,955.0100
2023-04-11T01:26:47.129Z,955.0300
2023-04-11T01:26:58.280Z,955.0300
2023-04-11T01:27:09.508Z,955.0300
2023-04-11T01:27:20.676Z,955.0500
2023-04-11T01:27:31.879Z,955.0300
2023-04-11T01:27:42.931Z,955.0300
2023-04-11T01:27:53.966Z,955.0300
2023-04-11T01:28:05.153Z,955.0300
2023-04-11T01:28:16.368Z,955.0500
2023-04-11T01:28:27.560Z,955.0300
2023-04-11T01:28:38.623Z,955.0500
2023-04-11T01:28:49.679Z,955.0300
2023-04-11T01:29:00.751Z,955.0300
2023-04-11T01:29:11.809Z,955.0100
2023-04-11T01:29:22.923Z,955.0300
2023-04-11T01:29:34.120Z,955.0300
2023-04-11T01:29:45.167Z,955.0300
2023-04-11T01:29:56.231Z,955.0500
2023-04-11T01:30:07.399Z,955.0700
2023-04-11T01:30:18.607Z,955.0900
2023-04-11T01:30:29.841Z,955.1100
2023-04-11T01:30:41.088Z,955.1100
2023-04-11T01:30:52.194Z,955.1100
2023-04-11T01:31:03.437Z,955.1100
2023-04-11T01:31:14.694Z,955.1300
2023-04-11T01:31:25.781Z,955.1300
2023-04-11T01:31:37.037Z,955.1500
2023-04-11T01:31:48.194Z,955.1500
2023-04-11T01:31:59.248Z,955.1500
2023-04-11T01:32:10.303Z,955.1500
2023-04-11T01:32:21.482Z,955.1900
2023-04-11T01:32:32.782Z,955.1900
2023-04-11T01:32:43.913Z,955.1500
2023-04-11T01:32:55.118Z,955.1700
2023-04-11T01:33:06.260Z,955.1700
2023-04-11T01:33:17.490Z,955.1700
2023-04-11T01:33:28.524Z,955.1700
2023-04-11T01:33:39.570Z,955.1700
2023-04-11T01:33:50.804Z,955.1500
2023-04-11T01:34:01.952Z,955.1700
2023-04-11T01:34:13.153Z,955.1500
2023-04-11T01:34:24.353Z,955.1500
2023-04-11T01:34:35.560Z,955.1500
2023-04-11T01:34:46.758Z,955.1500
2023-04-11T01:34:57.958Z,955.1300
2023-04-11T01:35:09.013Z,955.1300
2023-04-11T01:35:20.073Z,955.1100
2023-04-11T01:35:31.287Z,955.1100
2023-04-11T01:35:42.560Z,955.0900
2023-04-11T01:35:53.700Z,955.1100
2023-04-11T01:36:04.863Z,955.1100
2023-04-11T01:36:15.934Z,955.0900
2023-04-11T01:36:27.001Z,955.1100
2023-04-11T01:36:38.135Z,955.1100
2023-04-11T01:36:49.342Z,955.1100
2023-04-11T01:37:00.518Z,955.1300
2023-04-11T01:37:11.731Z,955.1500
2023-04-11T01:37:22.912Z,955.1700
2023-04-11T01:37:33.962Z,955.1700
2023-04-11T01:37:45.017Z,955.1900
2023-04-11T01:37:56.205Z,955.2100
2023-04-11T01:38:07.399Z,955.2100
2023-04-11T01:38:18.601Z,955.2100
2023-04-11T01:38:29.819Z,955.2100
2023-04-11T01:38:40.990Z,955.2100
2023-04-11T01:38:52.229Z,955.2100
2023-04-11T01:39:03.441Z,955.2100
2023-04-11T01:39:14.595Z,955.2100
2023-04-11T01:39:25.801Z,955.2100
2023-04-11T01:39:36.874Z,955.2100
2023-04-11T01:39:47.945Z,955.2300
2023-04-11T01:39:59.015Z,955.2100
2023-04-11T01:40:10.058Z,955.2300
2023-04-11T01:40:21.160Z,955.2300
2023-04-11T01:40:32.356Z,955.2300
2023-04-11T01:40:43.556Z,955.2300
2023-04-11T01:40:54.766Z,955.2500
2023-04-11T01:41:05.825Z,955.2500
2023-04-11T01:41:16.871Z,955.2500
2023-04-11T01:41:28.030Z,955.2300
2023-04-11T01:41:39.076Z,955.2100
2023-04-11T01:41:50.111Z,955.2100
2023-04-11T01:42:01.323Z,955.2100
2023-04-11T01:42:12.526Z,955.2100
2023-04-11T01:42:23.716Z,955.2300
2023-04-11T01:42:34.919Z,955.2300
2023-04-11T01:42:45.993Z,955.2300
2023-04-11T01:42:57.037Z,955.2100
2023-04-11T01:43:08.147Z,955.2300
2023-04-11T01:43:19.191Z,955.2300
2023-04-11T01:43:30.284Z,955.2100
2023-04-11T01:43:41.489Z,955.2100
2023-04-11T01:43:52.586Z,955.2100
2023-04-11T01:44:03.617Z,955.2100
2023-04-11T01:44:14.774Z,955.2100
2023-04-11T01:44:25.968Z,955.1900
2023-04-11T01:44:37.154Z,955.1900
2023-04-11T01:44:48.369Z,955.1900
2023-04-11T01:44:59.567Z,955.2100
2023-04-11T01:45:10.761Z,955.1900
2023-04-11T01:45:21.956Z,955.2100
2023-04-11T01:45:33.023Z,955.2100
2023-04-11T01:45:44.092Z,955.1700
2023-04-11T01:45:55.242Z,955.1700
2023-04-11T01:46:06.448Z,955.1900
2023-04-11T01:46:17.637Z,955.1900
2023-04-11T01:46:28.840Z,955.2100
2023-04-11T01:46:40.046Z,955.2100
2023-04-11T01:46:51.239Z,955.2100
2023-04-11T01:47:02.435Z,955.2100
2023-04-11T01:47:13.641Z,955.2100
2023-04-11T01:47:24.872Z,955.1900
2023-04-11T01:47:36.081Z,955.1700
2023-04-11T01:47:49.639Z,955.1700
2023-04-11T01:48:02.090Z,955.1700
2023-04-11T01:48:13.282Z,955.1900
2023-04-11T01:48:24.506Z,955.1900
2023-04-11T01:48:35.662Z,955.2100
2023-04-11T01:48:46.821Z,955.2100
2023-04-11T01:48:58.181Z,955.1900
2023-04-11T01:49:09.722Z,955.1900
2023-04-11T01:49:21.010Z,955.1900
2023-04-11T01:49:32.197Z,955.1900
2023-04-11T01:49:43.399Z,955.2100
2023-04-11T01:49:54.599Z,955.2100
2023-04-11T01:50:05.684Z,955.2100
2023-04-11T01:50:16.746Z,955.2100
2023-04-11T01:50:27.875Z,955.2100
2023-04-11T01:50:38.928Z,955.2100
2023-04-11T01:50:49.949Z,955.2300
2023-04-11T01:51:01.153Z,955.2100
2023-04-11T01:51:12.381Z,955.2100
2023-04-11T01:51:23.457Z,955.2100
2023-04-11T01:51:34.497Z,955.2100
2023-04-11T01:51:45.635Z,955.2100
2023-04-11T01:51:56.844Z,955.2100
2023-04-11T01:52:07.885Z,955.2100
2023-04-11T01:52:18.936Z,955.1900
2023-04-11T01:52:29.973Z,955.1900
2023-04-11T01:52:41.067Z,955.1900
2023-04-11T01:52:52.208Z,955.1700
2023-04-11T01:53:03.230Z,955.1700
2023-04-11T01:53:14.278Z,955.1700
2023-04-11T01:53:25.484Z,955.1700
2023-04-11T01:53:36.549Z,955.1700
2023-04-11T01:53:47.633Z,955.1700
2023-04-11T01:53:58.777Z,955.1700
2023-04-11T01:54:09.853Z,955.1500
2023-04-11T01:54:20.915Z,955.1500
2023-04-11T01:54:32.040Z,955.1500
2023-04-11T01:54:43.077Z,955.1300
2023-04-11T01:54:54.128Z,955.1300
2023-04-11T01:55:05.167Z,955.1300
2023-04-11T01:55:16.200Z,955.1100
2023-04-11T01:55:27.229Z,955.1100
2023-04-11T01:55:38.296Z,955.0900
2023-04-11T01:55:49.487Z,955.0900
2023-04-11T01:56:00.684Z,955.0700
2023-04-11T01:56:11.874Z,955.0700
2023-04-11T01:56:22.909Z,955.0700
2023-04-11T01:56:33.970Z,955.0500
2023-04-11T01:56:45.153Z,955.0300
2023-04-11T01:56:56.204Z,955.0300
2023-04-11T01:57:07.270Z,955.0300
2023-04-11T01:57:18.443Z,955.0100
2023-04-11T01:57:29.485Z,954.9900
2023-04-11T01:57:40.582Z,954.9900
2023-04-11T01:57:51.742Z,954.9700
2023-04-11T01:58:02.777Z,954.9700
2023-04-11T01:58:13.859Z,954.9700
2023-04-11T01:58:25.003Z,954.9700
2023-04-11T01:58:36.194Z,954.9500
2023-04-11T01:58:47.417Z,954.9700
2023-04-11T01:58:58.616Z,954.9700
2023-04-11T01:59:09.837Z,954.9700
2023-04-11T01:59:21.009Z,954.9700
2023-04-11T01:59:32.055Z,954.9500
2023-04-11T01:59:43.098Z,954.9500
2023-04-11T01:59:54.146Z,954.9700
2023-04-11T02:00:05.207Z,954.9500
2023-04-11T02:00:16.361Z,954.9500
2023-04-11T02:00:27.553Z,954.9500
2023-04-11T02:00:38.611Z,954.9700
2023-04-11T02:00:49.634Z,954.9500
2023-04-11T02:01:00.861Z,954.9500
2023-04-11T02:01:12.095Z,954.9500
2023-04-11T02:01:23.294Z,954.9300
2023-04-11T02:01:34.525Z,954.9300
2023-04-11T02:01:45.613Z,954.9100
2023-04-11T02:01:56.929Z,954.9100
2023-04-11T02:02:08.196Z,954.9100
2023-04-11T02:02:19.478Z,954.9000
2023-04-11T02:02:30.864Z,954.8800
2023-04-11T02:02:42.209Z,954.9000
2023-04-11T02:02:53.651Z,954.8800
2023-04-11T02:03:04.943Z,954.8800
2023-04-11T02:03:16.263Z,954.8400
2023-04-11T02:03:27.627Z,954.8400
2023-04-11T02:03:39.035Z,954.8400
2023-04-11T02:03:50.247Z,954.8400
2023-04-11T02:04:01.502Z,954.8600
2023-04-11T02:04:12.997Z,954.8200
2023-04-11T02:04:24.462Z,954.8200
2023-04-11T02:04:35.913Z,954.8200
2023-04-11T02:04:47.082Z,954.8000
2023-04-11T02:04:58.273Z,954.7800
2023-04-11T02:05:09.485Z,954.7800
2023-04-11T02:05:20.520Z,954.8000
2023-04-11T02:05:31.566Z,954.7800
2023-04-11T02:05:42.760Z,954.7800
2023-04-11T02:05:53.950Z,954.7600
2023-04-11T02:06:05.161Z,954.7600
2023-04-11T02:06:16.356Z,954.7800
2023-04-11T02:06:27.402Z,954.7800
2023-04-11T02:06:38.445Z,954.7800
2023-04-11T02:06:49.636Z,954.7800
2023-04-11T02:07:00.685Z,954.7800
2023-04-11T02:07:11.723Z,954.7800
2023-04-11T02:07:22.907Z,954.7800
2023-04-11T02:07:33.956Z,954.7800
2023-04-11T02:07:45.018Z,954.7800
2023-04-11T02:07:56.227Z,954.7800
2023-04-11T02:08:07.286Z,954.7800
2023-04-11T02:08:18.349Z,954.7800
2023-04-11T02:08:29.393Z,954.7800
2023-04-11T02:08:40.424Z,954.7800
2023-04-11T02:08:51.555Z,954.7800
2023-04-11T02:09:02.752Z,954.7800
2023-04-11T02:09:13.829Z,954.7600
2023-04-11T02:09:24.899Z,954.7600
2023-04-11T02:09:36.028Z,954.7600
2023-04-11T02:09:47.269Z,954.7800
2023-04-11T02:09:58.437Z,954.7800
2023-04-11T02:10:09.666Z,954.8000
2023-04-11T02:10:20.843Z,954.7800
2023-04-11T02:10:32.035Z,954.7800
2023-04-11T02:10:43.268Z,954.7800
2023-04-11T02:10:54.433Z,954.7600
2023-04-11T02:11:05.646Z,954.7400
2023-04-11T02:11:16.704Z,954.7400
2023-04-11T02:11:27.775Z,954.7600
2023-04-11T02:11:38.919Z,954.7600
2023-04-11T02:11:50.113Z,954.7600